Disclaimer

Please do not use the information listed here in-flight or in-navigation, as they are not provided to us by the airports but are provided by volunteers, so they might be outdated.

Search


Regions


Airport information page

Radio informations:
Tower (TWR) - 118.1 MHz
RDO - 3425 MHz
Approach (APP) - 118.1 MHz

Airport informations:
Latitude: 21° 12' 09.86" S
Longitude: 159° 48' 20.00" W
Elevation: 19 feet - 6 meters
Operating hours: Remarks
Operating agency: Civil government, landing fees and diplomatic clearance may be required
Timezone: UTC-10(-9:30DT)
Fuel: Jet A1, without icing nhibitor.

100/130 MIL Spec, low lead, aviation gasoline (BLUE)

Runway information:
08/26 - 7638 x 150 feet< - >2328 x 46 meters

Recent METARs:
NCRG 181500Z 08005KT 9999 FEW012 25/24 Q1014
NCRG 181600Z 08004KT 9999 FEW021 25/24 Q1015
NCRG 181600Z 08004KT 9999 FEW021 25/24 Q1015

Airport on the map: